sensor_id;sensor_type;location;lat;lon;timestamp;P1;durP1;ratioP1;P2;durP2;ratioP2
33148;SDS011;19506;51.040;3.856;2023-04-07T00:04:07;3.80;;;1.90;;
33148;SDS011;19506;51.040;3.856;2023-04-07T00:06:33;3.92;;;2.25;;
33148;SDS011;19506;51.040;3.856;2023-04-07T00:08:58;2.15;;;1.77;;
33148;SDS011;19506;51.040;3.856;2023-04-07T00:11:24;3.33;;;1.80;;
33148;SDS011;19506;51.040;3.856;2023-04-07T00:16:15;2.03;;;1.58;;
33148;SDS011;19506;51.040;3.856;2023-04-07T00:21:07;2.28;;;2.05;;
33148;SDS011;19506;51.040;3.856;2023-04-07T00:23:32;3.38;;;2.10;;
33148;SDS011;19506;51.040;3.856;2023-04-07T00:25:58;2.47;;;1.70;;
33148;SDS011;19506;51.040;3.856;2023-04-07T00:28:24;3.30;;;1.92;;
33148;SDS011;19506;51.040;3.856;2023-04-07T00:33:16;1.70;;;1.40;;
33148;SDS011;19506;51.040;3.856;2023-04-07T00:35:41;3.20;;;1.77;;
33148;SDS011;19506;51.040;3.856;2023-04-07T00:38:07;2.45;;;1.80;;
33148;SDS011;19506;51.040;3.856;2023-04-07T00:40:32;2.72;;;1.92;;
33148;SDS011;19506;51.040;3.856;2023-04-07T00:42:58;2.03;;;1.80;;
33148;SDS011;19506;51.040;3.856;2023-04-07T00:47:49;1.30;;;1.20;;
33148;SDS011;19506;51.040;3.856;2023-04-07T00:50:15;2.40;;;1.55;;
33148;SDS011;19506;51.040;3.856;2023-04-07T00:52:42;3.25;;;1.85;;
33148;SDS011;19506;51.040;3.856;2023-04-07T00:55:08;1.73;;;1.50;;
33148;SDS011;19506;51.040;3.856;2023-04-07T01:00:00;2.20;;;1.65;;
33148;SDS011;19506;51.040;3.856;2023-04-07T01:10:52;3.75;;;1.60;;
33148;SDS011;19506;51.040;3.856;2023-04-07T01:13:27;2.42;;;1.67;;
33148;SDS011;19506;51.040;3.856;2023-04-07T01:15:59;2.05;;;1.65;;
33148;SDS011;19506;51.040;3.856;2023-04-07T01:18:32;2.90;;;1.45;;
33148;SDS011;19506;51.040;3.856;2023-04-07T01:21:10;1.65;;;1.48;;
33148;SDS011;19506;51.040;3.856;2023-04-07T01:26:25;2.28;;;1.70;;
33148;SDS011;19506;51.040;3.856;2023-04-07T01:31:41;2.50;;;1.80;;
33148;SDS011;19506;51.040;3.856;2023-04-07T01:34:10;2.88;;;1.40;;
33148;SDS011;19506;51.040;3.856;2023-04-07T01:36:38;1.92;;;1.48;;
33148;SDS011;19506;51.040;3.856;2023-04-07T01:39:04;1.58;;;1.17;;
33148;SDS011;19506;51.040;3.856;2023-04-07T01:41:31;2.05;;;1.52;;
33148;SDS011;19506;51.040;3.856;2023-04-07T01:43:57;1.80;;;1.70;;
33148;SDS011;19506;51.040;3.856;2023-04-07T01:46:25;2.35;;;1.85;;
33148;SDS011;19506;51.040;3.856;2023-04-07T01:51:18;2.22;;;1.58;;
33148;SDS011;19506;51.040;3.856;2023-04-07T01:53:46;2.45;;;1.75;;
33148;SDS011;19506;51.040;3.856;2023-04-07T01:56:13;2.00;;;1.10;;
33148;SDS011;19506;51.040;3.856;2023-04-07T01:58:39;1.77;;;1.55;;
33148;SDS011;19506;51.040;3.856;2023-04-07T02:03:34;2.10;;;1.40;;
33148;SDS011;19506;51.040;3.856;2023-04-07T02:08:34;1.50;;;1.40;;
33148;SDS011;19506;51.040;3.856;2023-04-07T02:11:03;2.75;;;2.08;;
33148;SDS011;19506;51.040;3.856;2023-04-07T02:13:31;2.20;;;1.70;;
33148;SDS011;19506;51.040;3.856;2023-04-07T02:15:59;1.77;;;1.40;;
33148;SDS011;19506;51.040;3.856;2023-04-07T02:18:26;2.80;;;1.58;;
33148;SDS011;19506;51.040;3.856;2023-04-07T02:20:54;1.73;;;1.40;;
33148;SDS011;19506;51.040;3.856;2023-04-07T02:25:46;1.35;;;1.08;;
33148;SDS011;19506;51.040;3.856;2023-04-07T02:28:11;1.73;;;1.38;;
33148;SDS011;19506;51.040;3.856;2023-04-07T02:30:37;2.15;;;1.40;;
33148;SDS011;19506;51.040;3.856;2023-04-07T02:33:03;2.15;;;1.58;;
33148;SDS011;19506;51.040;3.856;2023-04-07T02:37:55;2.03;;;1.38;;
33148;SDS011;19506;51.040;3.856;2023-04-07T02:40:20;1.38;;;1.27;;
33148;SDS011;19506;51.040;3.856;2023-04-07T02:45:12;1.50;;;1.40;;
33148;SDS011;19506;51.040;3.856;2023-04-07T02:47:38;1.63;;;1.52;;
33148;SDS011;19506;51.040;3.856;2023-04-07T02:52:30;1.55;;;1.40;;
33148;SDS011;19506;51.040;3.856;2023-04-07T02:57:21;1.92;;;1.17;;
33148;SDS011;19506;51.040;3.856;2023-04-07T03:02:12;1.30;;;1.20;;
33148;SDS011;19506;51.040;3.856;2023-04-07T03:04:38;1.48;;;1.30;;
33148;SDS011;19506;51.040;3.856;2023-04-07T03:07:03;1.45;;;1.35;;
33148;SDS011;19506;51.040;3.856;2023-04-07T03:09:29;1.80;;;1.40;;
33148;SDS011;19506;51.040;3.856;2023-04-07T03:11:55;1.13;;;1.00;;
33148;SDS011;19506;51.040;3.856;2023-04-07T03:14:21;1.83;;;1.30;;
33148;SDS011;19506;51.040;3.856;2023-04-07T03:16:46;1.40;;;1.25;;
33148;SDS011;19506;51.040;3.856;2023-04-07T03:19:12;1.88;;;1.40;;
33148;SDS011;19506;51.040;3.856;2023-04-07T03:24:04;2.08;;;1.30;;
33148;SDS011;19506;51.040;3.856;2023-04-07T03:26:30;2.28;;;1.10;;
33148;SDS011;19506;51.040;3.856;2023-04-07T03:28:57;2.35;;;1.83;;
33148;SDS011;19506;51.040;3.856;2023-04-07T03:33:48;2.35;;;1.17;;
33148;SDS011;19506;51.040;3.856;2023-04-07T03:36:14;0.95;;;0.95;;
33148;SDS011;19506;51.040;3.856;2023-04-07T03:38:41;1.20;;;1.10;;
33148;SDS011;19506;51.040;3.856;2023-04-07T03:43:33;1.20;;;1.10;;
33148;SDS011;19506;51.040;3.856;2023-04-07T03:48:24;1.33;;;1.23;;
33148;SDS011;19506;51.040;3.856;2023-04-07T03:50:50;2.22;;;1.20;;
33148;SDS011;19506;51.040;3.856;2023-04-07T03:55:43;1.88;;;1.67;;
33148;SDS011;19506;51.040;3.856;2023-04-07T03:58:09;2.10;;;1.30;;
33148;SDS011;19506;51.040;3.856;2023-04-07T04:03:00;2.15;;;1.40;;
33148;SDS011;19506;51.040;3.856;2023-04-07T04:05:26;1.10;;;1.00;;
33148;SDS011;19506;51.040;3.856;2023-04-07T04:07:52;1.30;;;1.20;;
33148;SDS011;19506;51.040;3.856;2023-04-07T04:10:18;1.38;;;1.27;;
33148;SDS011;19506;51.040;3.856;2023-04-07T04:12:45;1.25;;;1.15;;
33148;SDS011;19506;51.040;3.856;2023-04-07T04:15:11;1.70;;;1.20;;
33148;SDS011;19506;51.040;3.856;2023-04-07T04:20:02;1.25;;;0.93;;
33148;SDS011;19506;51.040;3.856;2023-04-07T04:22:29;1.40;;;1.00;;
33148;SDS011;19506;51.040;3.856;2023-04-07T04:27:20;1.20;;;1.10;;
33148;SDS011;19506;51.040;3.856;2023-04-07T04:32:11;1.17;;;1.08;;
33148;SDS011;19506;51.040;3.856;2023-04-07T04:37:03;2.05;;;1.30;;
33148;SDS011;19506;51.040;3.856;2023-04-07T04:39:29;1.95;;;1.75;;
33148;SDS011;19506;51.040;3.856;2023-04-07T04:44:21;1.20;;;1.10;;
33148;SDS011;19506;51.040;3.856;2023-04-07T04:46:47;1.42;;;1.33;;
33148;SDS011;19506;51.040;3.856;2023-04-07T04:51:39;2.13;;;1.45;;
33148;SDS011;19506;51.040;3.856;2023-04-07T04:54:05;1.40;;;1.30;;
33148;SDS011;19506;51.040;3.856;2023-04-07T04:58:57;2.15;;;1.55;;
33148;SDS011;19506;51.040;3.856;2023-04-07T05:01:23;1.33;;;1.00;;
33148;SDS011;19506;51.040;3.856;2023-04-07T05:03:48;2.15;;;1.20;;
33148;SDS011;19506;51.040;3.856;2023-04-07T05:06:14;1.40;;;1.30;;
33148;SDS011;19506;51.040;3.856;2023-04-07T05:08:40;1.10;;;1.05;;
33148;SDS011;19506;51.040;3.856;2023-04-07T05:11:05;0.98;;;0.88;;
33148;SDS011;19506;51.040;3.856;2023-04-07T05:13:31;1.73;;;1.33;;
33148;SDS011;19506;51.040;3.856;2023-04-07T05:15:57;1.45;;;1.10;;
33148;SDS011;19506;51.040;3.856;2023-04-07T05:20:48;1.27;;;1.13;;
33148;SDS011;19506;51.040;3.856;2023-04-07T05:23:14;0.85;;;0.82;;
33148;SDS011;19506;51.040;3.856;2023-04-07T05:25:39;1.10;;;1.00;;
33148;SDS011;19506;51.040;3.856;2023-04-07T05:28:05;1.58;;;1.08;;
33148;SDS011;19506;51.040;3.856;2023-04-07T05:30:31;1.38;;;0.93;;
33148;SDS011;19506;51.040;3.856;2023-04-07T05:32:56;1.38;;;1.10;;
33148;SDS011;19506;51.040;3.856;2023-04-07T05:37:48;1.10;;;1.02;;
33148;SDS011;19506;51.040;3.856;2023-04-07T05:40:13;0.93;;;0.93;;
33148;SDS011;19506;51.040;3.856;2023-04-07T05:42:39;1.70;;;1.23;;
33148;SDS011;19506;51.040;3.856;2023-04-07T05:45:05;1.27;;;1.10;;
33148;SDS011;19506;51.040;3.856;2023-04-07T05:47:32;1.17;;;0.93;;
33148;SDS011;19506;51.040;3.856;2023-04-07T05:49:57;1.00;;;0.90;;
33148;SDS011;19506;51.040;3.856;2023-04-07T05:52:23;1.23;;;0.88;;
33148;SDS011;19506;51.040;3.856;2023-04-07T05:54:49;1.63;;;1.00;;
33148;SDS011;19506;51.040;3.856;2023-04-07T05:57:14;1.10;;;0.98;;
33148;SDS011;19506;51.040;3.856;2023-04-07T05:59:40;1.05;;;0.82;;
33148;SDS011;19506;51.040;3.856;2023-04-07T06:02:06;1.48;;;1.30;;
33148;SDS011;19506;51.040;3.856;2023-04-07T06:04:31;1.20;;;1.10;;
33148;SDS011;19506;51.040;3.856;2023-04-07T06:06:59;2.20;;;1.33;;
33148;SDS011;19506;51.040;3.856;2023-04-07T06:09:25;2.35;;;1.25;;
33148;SDS011;19506;51.040;3.856;2023-04-07T06:11:51;4.03;;;1.45;;
33148;SDS011;19506;51.040;3.856;2023-04-07T06:14:16;4.18;;;1.80;;
33148;SDS011;19506;51.040;3.856;2023-04-07T06:16:42;10.93;;;1.85;;
33148;SDS011;19506;51.040;3.856;2023-04-07T06:19:08;5.35;;;1.83;;
33148;SDS011;19506;51.040;3.856;2023-04-07T06:21:34;8.75;;;2.80;;
33148;SDS011;19506;51.040;3.856;2023-04-07T06:23:59;9.30;;;2.20;;
33148;SDS011;19506;51.040;3.856;2023-04-07T06:26:25;9.85;;;2.42;;
33148;SDS011;19506;51.040;3.856;2023-04-07T06:28:51;8.38;;;2.53;;
33148;SDS011;19506;51.040;3.856;2023-04-07T06:31:17;8.23;;;2.60;;
33148;SDS011;19506;51.040;3.856;2023-04-07T06:33:44;9.15;;;2.78;;
33148;SDS011;19506;51.040;3.856;2023-04-07T06:36:12;11.15;;;3.40;;
33148;SDS011;19506;51.040;3.856;2023-04-07T06:38:38;18.05;;;3.92;;
33148;SDS011;19506;51.040;3.856;2023-04-07T06:41:04;13.82;;;3.33;;
33148;SDS011;19506;51.040;3.856;2023-04-07T06:43:30;12.05;;;3.55;;
33148;SDS011;19506;51.040;3.856;2023-04-07T06:45:56;12.48;;;4.28;;
33148;SDS011;19506;51.040;3.856;2023-04-07T06:48:22;21.33;;;3.90;;
33148;SDS011;19506;51.040;3.856;2023-04-07T06:50:48;14.55;;;3.67;;
33148;SDS011;19506;51.040;3.856;2023-04-07T06:53:14;20.33;;;4.85;;
33148;SDS011;19506;51.040;3.856;2023-04-07T06:55:40;15.38;;;3.80;;
33148;SDS011;19506;51.040;3.856;2023-04-07T06:58:06;21.35;;;4.40;;
33148;SDS011;19506;51.040;3.856;2023-04-07T07:00:31;15.60;;;4.13;;
33148;SDS011;19506;51.040;3.856;2023-04-07T07:02:57;16.83;;;3.72;;
33148;SDS011;19506;51.040;3.856;2023-04-07T07:05:23;25.13;;;4.97;;
33148;SDS011;19506;51.040;3.856;2023-04-07T07:07:49;26.45;;;5.03;;
33148;SDS011;19506;51.040;3.856;2023-04-07T07:10:16;26.67;;;5.40;;
33148;SDS011;19506;51.040;3.856;2023-04-07T07:12:41;18.98;;;4.40;;
33148;SDS011;19506;51.040;3.856;2023-04-07T07:15:07;14.65;;;4.93;;
33148;SDS011;19506;51.040;3.856;2023-04-07T07:17:33;29.75;;;5.22;;
33148;SDS011;19506;51.040;3.856;2023-04-07T07:19:59;19.90;;;4.10;;
33148;SDS011;19506;51.040;3.856;2023-04-07T07:22:24;19.65;;;5.00;;
33148;SDS011;19506;51.040;3.856;2023-04-07T07:24:50;13.60;;;3.97;;
33148;SDS011;19506;51.040;3.856;2023-04-07T07:27:16;19.23;;;4.88;;
33148;SDS011;19506;51.040;3.856;2023-04-07T07:29:42;16.30;;;4.10;;
33148;SDS011;19506;51.040;3.856;2023-04-07T07:32:07;16.70;;;4.15;;
33148;SDS011;19506;51.040;3.856;2023-04-07T07:34:33;27.20;;;5.30;;
33148;SDS011;19506;51.040;3.856;2023-04-07T07:36:58;21.90;;;4.60;;
33148;SDS011;19506;51.040;3.856;2023-04-07T07:39:25;21.15;;;4.15;;
33148;SDS011;19506;51.040;3.856;2023-04-07T07:41:51;19.75;;;3.83;;
33148;SDS011;19506;51.040;3.856;2023-04-07T07:44:17;13.40;;;3.60;;
33148;SDS011;19506;51.040;3.856;2023-04-07T07:46:44;18.85;;;5.72;;
33148;SDS011;19506;51.040;3.856;2023-04-07T07:49:10;21.20;;;4.13;;
33148;SDS011;19506;51.040;3.856;2023-04-07T07:51:35;12.15;;;4.30;;
33148;SDS011;19506;51.040;3.856;2023-04-07T07:54:01;15.55;;;4.82;;
33148;SDS011;19506;51.040;3.856;2023-04-07T07:56:27;11.70;;;4.07;;
33148;SDS011;19506;51.040;3.856;2023-04-07T07:58:53;8.30;;;3.28;;
33148;SDS011;19506;51.040;3.856;2023-04-07T08:01:18;16.85;;;3.63;;
33148;SDS011;19506;51.040;3.856;2023-04-07T08:03:44;16.38;;;4.78;;
33148;SDS011;19506;51.040;3.856;2023-04-07T08:08:36;10.80;;;3.55;;
33148;SDS011;19506;51.040;3.856;2023-04-07T08:13:27;9.52;;;3.00;;
33148;SDS011;19506;51.040;3.856;2023-04-07T08:18:18;5.72;;;2.30;;
33148;SDS011;19506;51.040;3.856;2023-04-07T08:20:45;9.02;;;2.60;;
33148;SDS011;19506;51.040;3.856;2023-04-07T08:23:11;9.30;;;2.70;;
33148;SDS011;19506;51.040;3.856;2023-04-07T08:28:04;5.15;;;1.55;;
33148;SDS011;19506;51.040;3.856;2023-04-07T08:30:30;7.07;;;2.45;;
33148;SDS011;19506;51.040;3.856;2023-04-07T08:35:21;7.13;;;1.83;;
33148;SDS011;19506;51.040;3.856;2023-04-07T08:40:13;6.65;;;1.88;;
33148;SDS011;19506;51.040;3.856;2023-04-07T08:45:06;9.38;;;2.15;;
33148;SDS011;19506;51.040;3.856;2023-04-07T08:47:33;8.20;;;2.03;;
33148;SDS011;19506;51.040;3.856;2023-04-07T08:50:01;6.68;;;1.88;;
33148;SDS011;19506;51.040;3.856;2023-04-07T08:52:39;5.18;;;2.67;;
33148;SDS011;19506;51.040;3.856;2023-04-07T08:55:08;16.42;;;2.20;;
33148;SDS011;19506;51.040;3.856;2023-04-07T08:57:35;9.18;;;2.10;;
33148;SDS011;19506;51.040;3.856;2023-04-07T09:00:02;7.32;;;2.00;;
33148;SDS011;19506;51.040;3.856;2023-04-07T09:02:33;9.43;;;2.20;;
33148;SDS011;19506;51.040;3.856;2023-04-07T09:05:07;3.03;;;1.63;;
33148;SDS011;19506;51.040;3.856;2023-04-07T09:07:34;5.78;;;2.03;;
33148;SDS011;19506;51.040;3.856;2023-04-07T09:10:01;8.00;;;1.80;;
33148;SDS011;19506;51.040;3.856;2023-04-07T09:12:28;8.57;;;2.60;;
33148;SDS011;19506;51.040;3.856;2023-04-07T09:14:54;6.90;;;2.40;;
33148;SDS011;19506;51.040;3.856;2023-04-07T09:19:46;8.95;;;1.88;;
33148;SDS011;19506;51.040;3.856;2023-04-07T09:22:12;8.98;;;1.83;;
33148;SDS011;19506;51.040;3.856;2023-04-07T09:24:39;5.25;;;2.00;;
33148;SDS011;19506;51.040;3.856;2023-04-07T09:27:13;7.88;;;2.10;;
33148;SDS011;19506;51.040;3.856;2023-04-07T09:29:40;7.45;;;1.63;;
33148;SDS011;19506;51.040;3.856;2023-04-07T09:32:07;11.60;;;2.30;;
33148;SDS011;19506;51.040;3.856;2023-04-07T09:34:34;6.00;;;1.63;;
33148;SDS011;19506;51.040;3.856;2023-04-07T09:37:01;5.03;;;1.90;;
33148;SDS011;19506;51.040;3.856;2023-04-07T09:39:28;10.48;;;2.08;;
33148;SDS011;19506;51.040;3.856;2023-04-07T09:44:20;4.78;;;2.20;;
33148;SDS011;19506;51.040;3.856;2023-04-07T09:46:47;9.70;;;2.53;;
33148;SDS011;19506;51.040;3.856;2023-04-07T09:49:22;23.53;;;3.97;;
33148;SDS011;19506;51.040;3.856;2023-04-07T09:51:52;58.45;;;8.40;;
33148;SDS011;19506;51.040;3.856;2023-04-07T09:54:35;50.20;;;8.82;;
33148;SDS011;19506;51.040;3.856;2023-04-07T09:57:03;59.42;;;11.35;;
33148;SDS011;19506;51.040;3.856;2023-04-07T09:59:31;122.25;;;16.27;;
33148;SDS011;19506;51.040;3.856;2023-04-07T10:01:57;108.10;;;17.60;;
33148;SDS011;19506;51.040;3.856;2023-04-07T10:04:24;129.88;;;19.23;;
33148;SDS011;19506;51.040;3.856;2023-04-07T10:06:53;145.25;;;24.00;;
33148;SDS011;19506;51.040;3.856;2023-04-07T10:09:21;145.15;;;23.83;;
33148;SDS011;19506;51.040;3.856;2023-04-07T10:11:49;135.15;;;24.92;;
33148;SDS011;19506;51.040;3.856;2023-04-07T10:14:16;167.68;;;25.17;;
33148;SDS011;19506;51.040;3.856;2023-04-07T10:16:43;162.15;;;31.98;;
33148;SDS011;19506;51.040;3.856;2023-04-07T10:19:11;175.35;;;31.23;;
33148;SDS011;19506;51.040;3.856;2023-04-07T10:21:41;181.10;;;29.75;;
33148;SDS011;19506;51.040;3.856;2023-04-07T10:26:45;154.77;;;27.80;;
33148;SDS011;19506;51.040;3.856;2023-04-07T10:29:14;149.45;;;27.58;;
33148;SDS011;19506;51.040;3.856;2023-04-07T10:31:41;147.63;;;25.17;;
33148;SDS011;19506;51.040;3.856;2023-04-07T10:34:08;133.93;;;25.70;;
33148;SDS011;19506;51.040;3.856;2023-04-07T10:44:05;124.22;;;23.10;;
33148;SDS011;19506;51.040;3.856;2023-04-07T10:47:05;127.53;;;22.95;;
33148;SDS011;19506;51.040;3.856;2023-04-07T10:49:28;148.73;;;25.85;;
33148;SDS011;19506;51.040;3.856;2023-04-07T10:54:39;116.15;;;23.50;;
33148;SDS011;19506;51.040;3.856;2023-04-07T10:59:39;121.57;;;20.38;;
33148;SDS011;19506;51.040;3.856;2023-04-07T11:04:51;96.25;;;19.42;;
33148;SDS011;19506;51.040;3.856;2023-04-07T11:09:43;110.22;;;21.25;;
33148;SDS011;19506;51.040;3.856;2023-04-07T11:14:47;98.85;;;19.30;;
33148;SDS011;19506;51.040;3.856;2023-04-07T11:19:52;94.72;;;18.38;;
